sensor_id;sensor_type;location;lat;lon;timestamp;pressure;altitude;pressure_sealevel;temperature;humidity
60871;BME280;46714;50.118;14.462;2022-08-04T00:04:16;98939.53;;;20.93;70.80
60871;BME280;46714;50.118;14.462;2022-08-04T00:07:07;98945.66;;;20.90;70.06
60871;BME280;46714;50.118;14.462;2022-08-04T00:12:21;98955.94;;;20.84;71.25
60871;BME280;46714;50.118;14.462;2022-08-04T00:14:50;98951.81;;;20.82;71.14
60871;BME280;46714;50.118;14.462;2022-08-04T00:17:23;98950.47;;;20.74;71.51
60871;BME280;46714;50.118;14.462;2022-08-04T00:19:54;98951.34;;;20.69;71.74
60871;BME280;46714;50.118;14.462;2022-08-04T00:24:51;98956.38;;;20.62;72.72
60871;BME280;46714;50.118;14.462;2022-08-04T00:27:18;98953.88;;;20.61;72.25
60871;BME280;46714;50.118;14.462;2022-08-04T00:29:43;98945.59;;;20.61;72.38
60871;BME280;46714;50.118;14.462;2022-08-04T00:32:10;98942.81;;;20.61;72.12
60871;BME280;46714;50.118;14.462;2022-08-04T00:34:36;98945.59;;;20.61;72.10
60871;BME280;46714;50.118;14.462;2022-08-04T00:37:03;98955.28;;;20.58;71.75
60871;BME280;46714;50.118;14.462;2022-08-04T00:39:30;98960.00;;;20.58;71.67
60871;BME280;46714;50.118;14.462;2022-08-04T00:42:21;98952.78;;;20.57;71.82
60871;BME280;46714;50.118;14.462;2022-08-04T00:48:01;98954.19;;;20.49;73.18
60871;BME280;46714;50.118;14.462;2022-08-04T00:50:44;98948.41;;;20.45;73.01
60871;BME280;46714;50.118;14.462;2022-08-04T00:53:30;98953.13;;;20.45;73.06
60871;BME280;46714;50.118;14.462;2022-08-04T01:01:54;98958.69;;;20.40;73.46
60871;BME280;46714;50.118;14.462;2022-08-04T01:15:21;98970.34;;;20.26;74.25
60871;BME280;46714;50.118;14.462;2022-08-04T01:20:33;98959.59;;;20.20;75.04
60871;BME280;46714;50.118;14.462;2022-08-04T01:28:36;98965.44;;;20.13;74.68
60871;BME280;46714;50.118;14.462;2022-08-04T01:31:34;98967.13;;;20.09;74.99
60871;BME280;46714;50.118;14.462;2022-08-04T01:34:18;98969.59;;;20.05;74.91
60871;BME280;46714;50.118;14.462;2022-08-04T01:36:45;98962.72;;;20.03;75.13
60871;BME280;46714;50.118;14.462;2022-08-04T01:39:16;98969.63;;;20.00;75.40
60871;BME280;46714;50.118;14.462;2022-08-04T01:42:03;98973.78;;;19.98;75.01
60871;BME280;46714;50.118;14.462;2022-08-04T01:44:29;98977.38;;;19.98;75.48
60871;BME280;46714;50.118;14.462;2022-08-04T01:46:55;98974.88;;;19.97;74.79
60871;BME280;46714;50.118;14.462;2022-08-04T01:49:21;98970.19;;;19.97;75.56
60871;BME280;46714;50.118;14.462;2022-08-04T01:51:52;98970.75;;;19.94;75.03
60871;BME280;46714;50.118;14.462;2022-08-04T01:54:18;98974.91;;;19.92;75.17
60871;BME280;46714;50.118;14.462;2022-08-04T01:56:48;98970.78;;;19.89;75.69
60871;BME280;46714;50.118;14.462;2022-08-04T01:59:16;98968.28;;;19.87;75.51
60871;BME280;46714;50.118;14.462;2022-08-04T02:01:43;98970.78;;;19.84;75.40
60871;BME280;46714;50.118;14.462;2022-08-04T02:04:15;98976.88;;;19.81;75.70
60871;BME280;46714;50.118;14.462;2022-08-04T02:06:51;98973.84;;;19.77;75.26
60871;BME280;46714;50.118;14.462;2022-08-04T02:15:08;98972.72;;;19.68;75.84
60871;BME280;46714;50.118;14.462;2022-08-04T02:20:28;98963.91;;;19.61;76.26
60871;BME280;46714;50.118;14.462;2022-08-04T02:22:59;98968.88;;;19.59;76.44
60871;BME280;46714;50.118;14.462;2022-08-04T02:25:28;98968.03;;;19.58;76.72
60871;BME280;46714;50.118;14.462;2022-08-04T02:30:30;98966.97;;;19.54;76.69
60871;BME280;46714;50.118;14.462;2022-08-04T02:33:02;98962.81;;;19.52;76.61
60871;BME280;46714;50.118;14.462;2022-08-04T02:35:34;98965.31;;;19.48;76.92
60871;BME280;46714;50.118;14.462;2022-08-04T02:38:10;98956.75;;;19.44;76.80
60871;BME280;46714;50.118;14.462;2022-08-04T02:40:45;98965.34;;;19.38;77.21
60871;BME280;46714;50.118;14.462;2022-08-04T02:43:11;98963.09;;;19.35;77.39
60871;BME280;46714;50.118;14.462;2022-08-04T02:45:40;98960.91;;;19.32;77.68
60871;BME280;46714;50.118;14.462;2022-08-04T02:48:07;98966.44;;;19.32;77.38
60871;BME280;46714;50.118;14.462;2022-08-04T02:50:34;98959.25;;;19.25;77.68
60871;BME280;46714;50.118;14.462;2022-08-04T02:53:02;98963.13;;;19.24;77.56
60871;BME280;46714;50.118;14.462;2022-08-04T02:55:28;98961.47;;;19.23;78.32
60871;BME280;46714;50.118;14.462;2022-08-04T02:57:57;98967.28;;;19.22;78.41
60871;BME280;46714;50.118;14.462;2022-08-04T03:00:22;98968.34;;;19.21;78.56
60871;BME280;46714;50.118;14.462;2022-08-04T03:02:53;98964.22;;;19.18;77.94
60871;BME280;46714;50.118;14.462;2022-08-04T03:05:44;98961.72;;;19.17;78.15
60871;BME280;46714;50.118;14.462;2022-08-04T03:08:17;98956.75;;;19.19;78.81
60871;BME280;46714;50.118;14.462;2022-08-04T03:13:46;98962.28;;;19.14;78.31
60871;BME280;46714;50.118;14.462;2022-08-04T03:28:02;98960.63;;;19.02;79.20
60871;BME280;46714;50.118;14.462;2022-08-04T03:38:59;98968.09;;;18.97;78.62
60871;BME280;46714;50.118;14.462;2022-08-04T03:41:44;98979.13;;;18.97;79.21
60871;BME280;46714;50.118;14.462;2022-08-04T03:44:45;98968.09;;;18.97;79.00
60871;BME280;46714;50.118;14.462;2022-08-04T03:53:39;98971.13;;;18.95;79.79
60871;BME280;46714;50.118;14.462;2022-08-04T04:09:54;98965.59;;;18.95;79.82
60871;BME280;46714;50.118;14.462;2022-08-04T04:18:21;98966.41;;;18.96;79.86
60871;BME280;46714;50.118;14.462;2022-08-04T04:26:37;98965.59;;;19.05;79.99
60871;BME280;46714;50.118;14.462;2022-08-04T04:29:19;98971.41;;;19.09;80.38
60871;BME280;46714;50.118;14.462;2022-08-04T04:32:11;98972.22;;;19.10;80.37
60871;BME280;46714;50.118;14.462;2022-08-04T04:35:20;98968.63;;;19.14;80.09
60871;BME280;46714;50.118;14.462;2022-08-04T04:54:07;98981.59;;;19.39;80.58
60871;BME280;46714;50.118;14.462;2022-08-04T04:59:32;98985.75;;;19.52;79.75
60871;BME280;46714;50.118;14.462;2022-08-04T05:10:02;98990.41;;;19.82;77.22
60871;BME280;46714;50.118;14.462;2022-08-04T05:13:04;98986.75;;;19.97;76.45
60871;BME280;46714;50.118;14.462;2022-08-04T05:15:41;98990.59;;;20.12;75.55
60871;BME280;46714;50.118;14.462;2022-08-04T05:18:11;98989.44;;;20.23;76.09
60871;BME280;46714;50.118;14.462;2022-08-04T05:20:44;98990.25;;;20.28;74.40
60871;BME280;46714;50.118;14.462;2022-08-04T05:23:20;98989.38;;;20.38;73.54
60871;BME280;46714;50.118;14.462;2022-08-04T05:25:57;98993.47;;;20.51;73.00
60871;BME280;46714;50.118;14.462;2022-08-04T05:28:45;98987.91;;;20.61;72.93
60871;BME280;46714;50.118;14.462;2022-08-04T05:31:26;98987.03;;;20.66;73.18
60871;BME280;46714;50.118;14.462;2022-08-04T05:33:57;98984.81;;;20.73;71.66
60871;BME280;46714;50.118;14.462;2022-08-04T05:36:32;98984.44;;;20.85;71.52
60871;BME280;46714;50.118;14.462;2022-08-04T05:39:02;98985.81;;;20.87;72.72
60871;BME280;46714;50.118;14.462;2022-08-04T05:41:29;98991.91;;;20.84;70.98
60871;BME280;46714;50.118;14.462;2022-08-04T05:43:57;98989.94;;;20.90;70.09
60871;BME280;46714;50.118;14.462;2022-08-04T05:46:23;98985.78;;;20.92;70.87
60871;BME280;46714;50.118;14.462;2022-08-04T05:48:49;98986.63;;;20.88;71.90
60871;BME280;46714;50.118;14.462;2022-08-04T05:51:16;98990.25;;;20.83;69.72
60871;BME280;46714;50.118;14.462;2022-08-04T05:53:42;98982.78;;;20.84;70.40
60871;BME280;46714;50.118;14.462;2022-08-04T05:56:10;98987.75;;;20.87;69.36
60871;BME280;46714;50.118;14.462;2022-08-04T05:58:37;98990.16;;;20.99;69.84
60871;BME280;46714;50.118;14.462;2022-08-04T06:01:04;98988.19;;;21.04;69.27
60871;BME280;46714;50.118;14.462;2022-08-04T06:03:33;98988.66;;;21.11;68.91
60871;BME280;46714;50.118;14.462;2022-08-04T06:06:00;98991.66;;;21.20;68.18
60871;BME280;46714;50.118;14.462;2022-08-04T06:08:27;98996.88;;;21.27;67.39
60871;BME280;46714;50.118;14.462;2022-08-04T06:10:54;98988.28;;;21.28;68.57
60871;BME280;46714;50.118;14.462;2022-08-04T06:13:28;98995.72;;;21.33;65.90
60871;BME280;46714;50.118;14.462;2022-08-04T06:15:54;99007.53;;;21.44;66.43
60871;BME280;46714;50.118;14.462;2022-08-04T06:18:22;98998.66;;;21.47;66.12
60871;BME280;46714;50.118;14.462;2022-08-04T06:20:53;99002.53;;;21.46;68.60
60871;BME280;46714;50.118;14.462;2022-08-04T06:23:20;99006.72;;;21.43;67.51
60871;BME280;46714;50.118;14.462;2022-08-04T06:25:50;98999.00;;;21.40;66.97
60871;BME280;46714;50.118;14.462;2022-08-04T06:28:19;99000.91;;;21.45;66.25
60871;BME280;46714;50.118;14.462;2022-08-04T06:30:46;98993.13;;;21.47;65.61
60871;BME280;46714;50.118;14.462;2022-08-04T06:33:14;98990.06;;;21.48;65.88
60871;BME280;46714;50.118;14.462;2022-08-04T06:36:00;99001.34;;;21.57;65.06
60871;BME280;46714;50.118;14.462;2022-08-04T06:38:28;98998.00;;;21.60;65.53
60871;BME280;46714;50.118;14.462;2022-08-04T06:40:56;98993.28;;;21.61;63.74
60871;BME280;46714;50.118;14.462;2022-08-04T06:43:22;98995.72;;;21.67;63.58
60871;BME280;46714;50.118;14.462;2022-08-04T06:45:49;98993.75;;;21.68;63.81
60871;BME280;46714;50.118;14.462;2022-08-04T06:48:16;98994.50;;;21.79;64.98
60871;BME280;46714;50.118;14.462;2022-08-04T06:50:45;98997.47;;;21.82;63.55
60871;BME280;46714;50.118;14.462;2022-08-04T06:53:12;98993.25;;;21.90;62.59
60871;BME280;46714;50.118;14.462;2022-08-04T06:55:39;98989.84;;;21.98;62.40
60871;BME280;46714;50.118;14.462;2022-08-04T06:58:07;98988.88;;;22.08;61.86
60871;BME280;46714;50.118;14.462;2022-08-04T07:00:34;98990.72;;;22.17;63.82
60871;BME280;46714;50.118;14.462;2022-08-04T07:03:01;98991.84;;;22.16;64.30
60871;BME280;46714;50.118;14.462;2022-08-04T07:05:27;98986.66;;;22.34;62.10
60871;BME280;46714;50.118;14.462;2022-08-04T07:07:54;98984.88;;;22.43;63.17
60871;BME280;46714;50.118;14.462;2022-08-04T07:10:20;98995.09;;;22.48;62.53
60871;BME280;46714;50.118;14.462;2022-08-04T07:12:47;98992.97;;;22.58;61.35
60871;BME280;46714;50.118;14.462;2022-08-04T07:15:14;98992.78;;;22.74;59.64
60871;BME280;46714;50.118;14.462;2022-08-04T07:17:42;98992.13;;;22.82;59.78
60871;BME280;46714;50.118;14.462;2022-08-04T07:20:09;98994.19;;;22.90;59.78
60871;BME280;46714;50.118;14.462;2022-08-04T07:22:34;98995.78;;;22.96;59.20
60871;BME280;46714;50.118;14.462;2022-08-04T07:25:00;98984.03;;;23.05;59.92
60871;BME280;46714;50.118;14.462;2022-08-04T07:27:26;98984.25;;;23.08;59.57
60871;BME280;46714;50.118;14.462;2022-08-04T07:29:52;98981.84;;;23.20;56.94
60871;BME280;46714;50.118;14.462;2022-08-04T07:32:19;98978.97;;;23.26;58.00
60871;BME280;46714;50.118;14.462;2022-08-04T07:34:46;98978.59;;;23.32;56.92
60871;BME280;46714;50.118;14.462;2022-08-04T07:37:12;98982.63;;;23.40;60.42
60871;BME280;46714;50.118;14.462;2022-08-04T07:39:38;98985.63;;;23.44;56.52
60871;BME280;46714;50.118;14.462;2022-08-04T07:42:04;98988.84;;;23.51;55.38
60871;BME280;46714;50.118;14.462;2022-08-04T07:44:30;98988.72;;;23.56;54.45
60871;BME280;46714;50.118;14.462;2022-08-04T07:46:57;98982.97;;;23.66;54.32
60871;BME280;46714;50.118;14.462;2022-08-04T07:49:23;98980.66;;;23.73;54.97
60871;BME280;46714;50.118;14.462;2022-08-04T07:51:51;98981.91;;;23.81;54.53
60871;BME280;46714;50.118;14.462;2022-08-04T07:54:17;98984.59;;;23.86;52.61
60871;BME280;46714;50.118;14.462;2022-08-04T07:56:43;98986.34;;;23.96;52.07
60871;BME280;46714;50.118;14.462;2022-08-04T07:59:08;98977.19;;;24.09;52.73
60871;BME280;46714;50.118;14.462;2022-08-04T08:01:34;98981.00;;;24.13;52.42
60871;BME280;46714;50.118;14.462;2022-08-04T08:04:01;98980.81;;;24.23;52.95
60871;BME280;46714;50.118;14.462;2022-08-04T08:06:29;98980.69;;;24.29;54.32
60871;BME280;46714;50.118;14.462;2022-08-04T08:08:54;98977.50;;;24.35;52.64
60871;BME280;46714;50.118;14.462;2022-08-04T08:11:20;98984.91;;;24.40;51.31
60871;BME280;46714;50.118;14.462;2022-08-04T08:13:46;98975.03;;;24.48;51.42
60871;BME280;46714;50.118;14.462;2022-08-04T08:16:12;98973.81;;;24.54;51.17
60871;BME280;46714;50.118;14.462;2022-08-04T08:18:38;98975.41;;;24.69;49.17
60871;BME280;46714;50.118;14.462;2022-08-04T08:21:04;98967.66;;;24.79;52.45
60871;BME280;46714;50.118;14.462;2022-08-04T08:23:30;98971.13;;;24.85;50.08
60871;BME280;46714;50.118;14.462;2022-08-04T08:25:58;98965.25;;;24.86;48.84
60871;BME280;46714;50.118;14.462;2022-08-04T08:28:23;98967.41;;;24.90;49.47
60871;BME280;46714;50.118;14.462;2022-08-04T08:30:49;98969.75;;;24.96;48.36
60871;BME280;46714;50.118;14.462;2022-08-04T08:33:15;98970.78;;;25.00;47.71
60871;BME280;46714;50.118;14.462;2022-08-04T08:35:46;98978.91;;;25.11;48.06
60871;BME280;46714;50.118;14.462;2022-08-04T08:38:16;98974.25;;;25.20;47.25
60871;BME280;46714;50.118;14.462;2022-08-04T08:40:47;98967.72;;;25.24;48.94
60871;BME280;46714;50.118;14.462;2022-08-04T08:46:32;98968.78;;;25.37;45.74
60871;BME280;46714;50.118;14.462;2022-08-04T08:51:42;98968.91;;;25.55;46.42
60871;BME280;46714;50.118;14.462;2022-08-04T08:54:26;98969.25;;;25.62;45.50
60871;BME280;46714;50.118;14.462;2022-08-04T09:00:17;98970.13;;;25.71;44.92
60871;BME280;46714;50.118;14.462;2022-08-04T09:10:53;98959.84;;;26.11;44.00
60871;BME280;46714;50.118;14.462;2022-08-04T09:13:32;98950.97;;;26.18;45.20
60871;BME280;46714;50.118;14.462;2022-08-04T09:21:17;98951.03;;;26.36;44.63
60871;BME280;46714;50.118;14.462;2022-08-04T09:26:51;98955.72;;;26.58;44.16
60871;BME280;46714;50.118;14.462;2022-08-04T09:29:42;98947.84;;;26.60;43.29
60871;BME280;46714;50.118;14.462;2022-08-04T09:32:20;98952.25;;;26.61;44.69
60871;BME280;46714;50.118;14.462;2022-08-04T09:34:56;98940.44;;;26.64;44.74
60871;BME280;46714;50.118;14.462;2022-08-04T09:37:55;98941.59;;;26.71;43.88
60871;BME280;46714;50.118;14.462;2022-08-04T09:40:32;98942.75;;;26.88;43.03
60871;BME280;46714;50.118;14.462;2022-08-04T09:45:58;98933.03;;;27.03;43.61
60871;BME280;46714;50.118;14.462;2022-08-04T09:54:18;98928.28;;;27.21;44.28
60871;BME280;46714;50.118;14.462;2022-08-04T09:59:31;98930.59;;;27.27;40.92
60871;BME280;46714;50.118;14.462;2022-08-04T10:02:05;98925.78;;;27.36;39.63
60871;BME280;46714;50.118;14.462;2022-08-04T10:04:34;98929.06;;;27.47;41.22
60871;BME280;46714;50.118;14.462;2022-08-04T10:24:01;98908.38;;;27.87;41.15
60871;BME280;46714;50.118;14.462;2022-08-04T10:32:42;98900.31;;;28.15;37.62
60871;BME280;46714;50.118;14.462;2022-08-04T10:35:07;98911.44;;;28.32;38.64
60871;BME280;46714;50.118;14.462;2022-08-04T10:38:09;98913.81;;;28.42;37.58
60871;BME280;46714;50.118;14.462;2022-08-04T10:40:45;98910.88;;;28.48;38.85
60871;BME280;46714;50.118;14.462;2022-08-04T10:48:55;98900.59;;;28.52;36.91
60871;BME280;46714;50.118;14.462;2022-08-04T10:54:18;98891.13;;;28.65;37.65
60871;BME280;46714;50.118;14.462;2022-08-04T10:56:52;98890.94;;;28.70;37.94
60871;BME280;46714;50.118;14.462;2022-08-04T10:59:32;98885.59;;;28.77;39.96
60871;BME280;46714;50.118;14.462;2022-08-04T11:04:53;98885.78;;;28.93;37.08
60871;BME280;46714;50.118;14.462;2022-08-04T11:07:29;98900.06;;;29.00;38.32
60871;BME280;46714;50.118;14.462;2022-08-04T11:09:59;98892.13;;;29.02;39.44
60871;BME280;46714;50.118;14.462;2022-08-04T11:12:25;98892.13;;;29.02;38.74
60871;BME280;46714;50.118;14.462;2022-08-04T11:14:57;98895.72;;;29.03;38.84
60871;BME280;46714;50.118;14.462;2022-08-04T11:17:30;98889.44;;;29.06;37.31
60871;BME280;46714;50.118;14.462;2022-08-04T11:22:31;98879.72;;;29.24;37.77
60871;BME280;46714;50.118;14.462;2022-08-04T11:25:06;98876.44;;;29.22;37.63
60871;BME280;46714;50.118;14.462;2022-08-04T11:30:35;98882.56;;;29.37;36.71
60871;BME280;46714;50.118;14.462;2022-08-04T11:41:38;98885.31;;;29.70;35.11
60871;BME280;46714;50.118;14.462;2022-08-04T11:44:11;98885.31;;;29.70;34.68
60871;BME280;46714;50.118;14.462;2022-08-04T11:46:46;98881.34;;;29.71;35.22
60871;BME280;46714;50.118;14.462;2022-08-04T11:49:21;98881.81;;;29.73;34.15
60871;BME280;46714;50.118;14.462;2022-08-04T11:51:52;98877.16;;;29.90;34.63
60871;BME280;46714;50.118;14.462;2022-08-04T11:54:22;98883.81;;;29.97;34.37
60871;BME280;46714;50.118;14.462;2022-08-04T11:56:47;98875.84;;;29.99;34.87
60871;BME280;46714;50.118;14.462;2022-08-04T11:59:13;98864.38;;;30.04;34.32
60871;BME280;46714;50.118;14.462;2022-08-04T12:04:46;98872.34;;;30.15;35.21
60871;BME280;46714;50.118;14.462;2022-08-04T12:07:20;98875.25;;;30.18;36.26
60871;BME280;46714;50.118;14.462;2022-08-04T12:12:52;98864.38;;;30.17;34.08
60871;BME280;46714;50.118;14.462;2022-08-04T12:15:36;98869.06;;;30.13;35.79
60871;BME280;46714;50.118;14.462;2022-08-04T12:21:22;98867.41;;;30.12;34.18
60871;BME280;46714;50.118;14.462;2022-08-04T12:23:52;98864.38;;;30.17;34.96
60871;BME280;46714;50.118;14.462;2022-08-04T12:26:31;98866.81;;;30.18;36.60
60871;BME280;46714;50.118;14.462;2022-08-04T12:29:02;98862.28;;;30.14;34.54
60871;BME280;46714;50.118;14.462;2022-08-04T12:31:35;98859.81;;;30.12;35.35
60871;BME280;46714;50.118;14.462;2022-08-04T12:36:51;98849.88;;;30.27;34.13
60871;BME280;46714;50.118;14.462;2022-08-04T12:39:25;98849.63;;;30.44;33.28
60871;BME280;46714;50.118;14.462;2022-08-04T12:44:19;98840.78;;;30.58;33.86
60871;BME280;46714;50.118;14.462;2022-08-04T12:46:46;98844.16;;;30.64;33.00
60871;BME280;46714;50.118;14.462;2022-08-04T12:49:13;98836.72;;;30.84;32.71
60871;BME280;46714;50.118;14.462;2022-08-04T12:51:41;98833.41;;;30.94;33.11
60871;BME280;46714;50.118;14.462;2022-08-04T12:54:09;98836.41;;;31.01;31.98
60871;BME280;46714;50.118;14.462;2022-08-04T12:56:35;98831.69;;;31.05;32.27
60871;BME280;46714;50.118;14.462;2022-08-04T12:59:04;98829.47;;;31.11;31.73
60871;BME280;46714;50.118;14.462;2022-08-04T13:01:31;98824.22;;;31.25;31.86
60871;BME280;46714;50.118;14.462;2022-08-04T13:03:58;98833.28;;;31.35;31.64
60871;BME280;46714;50.118;14.462;2022-08-04T13:06:29;98824.28;;;31.29;32.33
60871;BME280;46714;50.118;14.462;2022-08-04T13:09:04;98822.94;;;31.23;32.58
60871;BME280;46714;50.118;14.462;2022-08-04T13:11:34;98809.41;;;31.28;32.12
60871;BME280;46714;50.118;14.462;2022-08-04T13:14:03;98818.25;;;31.43;31.25
60871;BME280;46714;50.118;14.462;2022-08-04T13:16:31;98816.09;;;31.52;31.98
60871;BME280;46714;50.118;14.462;2022-08-04T13:18:57;98813.69;;;31.54;31.19
60871;BME280;46714;50.118;14.462;2022-08-04T13:21:24;98822.34;;;31.61;33.61
60871;BME280;46714;50.118;14.462;2022-08-04T13:23:53;98814.72;;;31.62;32.40
60871;BME280;46714;50.118;14.462;2022-08-04T13:26:22;98810.06;;;31.69;31.48
60871;BME280;46714;50.118;14.462;2022-08-04T13:28:51;98812.88;;;31.69;32.67
60871;BME280;46714;50.118;14.462;2022-08-04T13:31:19;98809.16;;;31.65;31.14
60871;BME280;46714;50.118;14.462;2022-08-04T13:33:48;98812.59;;;31.75;31.23
60871;BME280;46714;50.118;14.462;2022-08-04T13:36:16;98798.34;;;31.83;30.59
60871;BME280;46714;50.118;14.462;2022-08-04T13:38:45;98795.31;;;31.92;31.43
60871;BME280;46714;50.118;14.462;2022-08-04T13:41:22;98793.78;;;31.94;30.74
60871;BME280;46714;50.118;14.462;2022-08-04T13:43:49;98795.78;;;31.94;31.34
60871;BME280;46714;50.118;14.462;2022-08-04T13:46:27;98789.44;;;31.97;31.98
60871;BME280;46714;50.118;14.462;2022-08-04T13:48:56;98789.59;;;32.04;31.30
60871;BME280;46714;50.118;14.462;2022-08-04T13:51:23;98784.41;;;32.06;31.81
60871;BME280;46714;50.118;14.462;2022-08-04T13:53:57;98790.66;;;32.16;30.59
60871;BME280;46714;50.118;14.462;2022-08-04T13:56:28;98789.63;;;32.24;30.06
60871;BME280;46714;50.118;14.462;2022-08-04T13:58:57;98785.63;;;32.25;30.17
60871;BME280;46714;50.118;14.462;2022-08-04T14:01:25;98777.31;;;32.32;30.40
60871;BME280;46714;50.118;14.462;2022-08-04T14:04:02;98769.03;;;32.39;30.36
60871;BME280;46714;50.118;14.462;2022-08-04T14:06:34;98770.97;;;32.54;29.32
60871;BME280;46714;50.118;14.462;2022-08-04T14:09:11;98766.69;;;32.61;29.97
60871;BME280;46714;50.118;14.462;2022-08-04T14:11:40;98776.09;;;32.68;31.82
60871;BME280;46714;50.118;14.462;2022-08-04T14:19:28;98759.50;;;32.86;30.68
60871;BME280;46714;50.118;14.462;2022-08-04T14:25:03;98753.06;;;33.55;31.47
60871;BME280;46714;50.118;14.462;2022-08-04T14:27:49;98753.53;;;34.10;29.31
60871;BME280;46714;50.118;14.462;2022-08-04T14:35:26;98750.94;;;34.96;27.17
60871;BME280;46714;50.118;14.462;2022-08-04T14:37:56;98747.53;;;35.17;25.89
60871;BME280;46714;50.118;14.462;2022-08-04T14:40:30;98743.97;;;35.23;25.99
60871;BME280;46714;50.118;14.462;2022-08-04T14:42:58;98747.59;;;35.28;26.71
60871;BME280;46714;50.118;14.462;2022-08-04T14:47:59;98746.31;;;35.18;27.10
60871;BME280;46714;50.118;14.462;2022-08-04T14:53:12;98739.63;;;35.40;26.08
60871;BME280;46714;50.118;14.462;2022-08-04T14:55:42;98743.03;;;35.60;26.46
60871;BME280;46714;50.118;14.462;2022-08-04T14:58:17;98731.91;;;35.85;25.32
60871;BME280;46714;50.118;14.462;2022-08-04T15:00:47;98737.75;;;36.21;25.42
60871;BME280;46714;50.118;14.462;2022-08-04T15:03:14;98737.56;;;36.69;24.43
60871;BME280;46714;50.118;14.462;2022-08-04T15:05:42;98736.88;;;37.16;25.99
60871;BME280;46714;50.118;14.462;2022-08-04T15:08:09;98728.75;;;37.68;26.15
60871;BME280;46714;50.118;14.462;2022-08-04T15:10:39;98731.94;;;38.06;23.64
60871;BME280;46714;50.118;14.462;2022-08-04T15:13:06;98732.22;;;38.37;25.29
60871;BME280;46714;50.118;14.462;2022-08-04T15:15:33;98726.06;;;38.52;23.65
60871;BME280;46714;50.118;14.462;2022-08-04T15:17:59;98729.88;;;38.13;23.84
60871;BME280;46714;50.118;14.462;2022-08-04T15:20:24;98725.72;;;38.32;24.25
60871;BME280;46714;50.118;14.462;2022-08-04T15:22:50;98727.63;;;38.64;21.80
60871;BME280;46714;50.118;14.462;2022-08-04T15:25:15;98715.38;;;38.74;21.81
60871;BME280;46714;50.118;14.462;2022-08-04T15:27:42;98726.44;;;38.62;22.26
60871;BME280;46714;50.118;14.462;2022-08-04T15:30:13;98719.97;;;38.54;23.12
60871;BME280;46714;50.118;14.462;2022-08-04T15:32:49;98722.75;;;38.68;24.96
60871;BME280;46714;50.118;14.462;2022-08-04T15:35:18;98723.97;;;38.67;22.94
60871;BME280;46714;50.118;14.462;2022-08-04T15:38:08;98720.22;;;38.81;21.59
60871;BME280;46714;50.118;14.462;2022-08-04T15:49:19;98711.41;;;39.24;23.57
60871;BME280;46714;50.118;14.462;2022-08-04T15:51:46;98709.88;;;39.57;24.39
60871;BME280;46714;50.118;14.462;2022-08-04T15:56:44;98713.03;;;40.08;19.19
60871;BME280;46714;50.118;14.462;2022-08-04T15:59:11;98700.03;;;40.04;19.87
60871;BME280;46714;50.118;14.462;2022-08-04T16:01:36;98703.47;;;39.91;19.62
60871;BME280;46714;50.118;14.462;2022-08-04T16:04:19;98699.16;;;40.10;19.34
60871;BME280;46714;50.118;14.462;2022-08-04T16:06:46;98704.66;;;40.28;19.53
60871;BME280;46714;50.118;14.462;2022-08-04T16:09:22;98703.28;;;40.40;20.11
60871;BME280;46714;50.118;14.462;2022-08-04T16:11:49;98698.34;;;40.44;20.11
60871;BME280;46714;50.118;14.462;2022-08-04T16:14:15;98702.94;;;40.65;21.15
60871;BME280;46714;50.118;14.462;2022-08-04T16:21:35;98693.97;;;40.94;20.25
60871;BME280;46714;50.118;14.462;2022-08-04T16:26:58;98685.38;;;40.39;20.12
60871;BME280;46714;50.118;14.462;2022-08-04T16:29:25;98693.34;;;40.17;21.19
60871;BME280;46714;50.118;14.462;2022-08-04T16:34:29;98691.94;;;40.36;21.28
60871;BME280;46714;50.118;14.462;2022-08-04T16:36:59;98694.38;;;40.65;21.13
60871;BME280;46714;50.118;14.462;2022-08-04T16:39:26;98699.47;;;40.81;21.04
60871;BME280;46714;50.118;14.462;2022-08-04T16:41:52;98688.53;;;40.76;20.51
60871;BME280;46714;50.118;14.462;2022-08-04T16:46:59;98699.13;;;40.48;19.07
60871;BME280;46714;50.118;14.462;2022-08-04T16:49:26;98691.69;;;40.20;19.99
60871;BME280;46714;50.118;14.462;2022-08-04T16:51:53;98691.69;;;40.20;20.72
60871;BME280;46714;50.118;14.462;2022-08-04T16:54:25;98691.41;;;40.11;21.00
60871;BME280;46714;50.118;14.462;2022-08-04T16:56:54;98692.84;;;39.95;20.90
60871;BME280;46714;50.118;14.462;2022-08-04T16:59:19;98688.00;;;39.89;23.10
60871;BME280;46714;50.118;14.462;2022-08-04T17:01:49;98690.41;;;39.52;20.51
60871;BME280;46714;50.118;14.462;2022-08-04T17:04:16;98689.63;;;39.00;21.45
60871;BME280;46714;50.118;14.462;2022-08-04T17:06:51;98686.59;;;38.62;23.16
60871;BME280;46714;50.118;14.462;2022-08-04T17:09:24;98686.88;;;38.01;25.10
60871;BME280;46714;50.118;14.462;2022-08-04T17:11:49;98692.25;;;37.16;25.01
60871;BME280;46714;50.118;14.462;2022-08-04T17:14:24;98685.28;;;36.60;25.58
60871;BME280;46714;50.118;14.462;2022-08-04T17:16:53;98696.34;;;35.99;27.70
60871;BME280;46714;50.118;14.462;2022-08-04T17:19:21;98682.19;;;35.36;30.26
60871;BME280;46714;50.118;14.462;2022-08-04T17:21:47;98680.91;;;34.86;28.60
60871;BME280;46714;50.118;14.462;2022-08-04T17:24:13;98692.53;;;34.39;28.77
60871;BME280;46714;50.118;14.462;2022-08-04T17:26:39;98690.44;;;34.03;28.13
60871;BME280;46714;50.118;14.462;2022-08-04T17:29:05;98692.03;;;33.70;26.94
60871;BME280;46714;50.118;14.462;2022-08-04T17:31:32;98686.59;;;33.31;28.49
60871;BME280;46714;50.118;14.462;2022-08-04T17:34:00;98689.69;;;33.03;28.84
60871;BME280;46714;50.118;14.462;2022-08-04T17:36:32;98690.16;;;32.82;29.81
60871;BME280;46714;50.118;14.462;2022-08-04T17:38:58;98683.72;;;32.62;30.00
60871;BME280;46714;50.118;14.462;2022-08-04T17:41:29;98684.13;;;32.41;31.82